createdAt,value
2022-12-19T00:01:27.642Z,89.05
2022-12-19T00:03:29.288Z,89.25
2022-12-19T00:05:31.057Z,89.07
2022-12-19T00:07:33.049Z,88.65
2022-12-19T00:09:34.772Z,88.42
2022-12-19T00:11:36.770Z,88.67
2022-12-19T00:13:41.219Z,88.52
2022-12-19T00:15:39.660Z,88.61
2022-12-19T00:17:40.832Z,88.69
2022-12-19T00:19:42.645Z,88.81
2022-12-19T00:21:44.027Z,88.63
2022-12-19T00:23:45.752Z,88.75
2022-12-19T00:25:47.650Z,88.97
2022-12-19T00:29:50.462Z,89.3
2022-12-19T00:31:52.498Z,89.31
2022-12-19T00:33:53.996Z,89.34
2022-12-19T00:35:55.885Z,89.33
2022-12-19T00:37:57.944Z,89.31
2022-12-19T00:40:00.007Z,89.43
2022-12-19T00:42:01.693Z,89.34
2022-12-19T00:44:03.255Z,89.38
2022-12-19T00:46:04.705Z,89.4
2022-12-19T00:48:06.520Z,89.48
2022-12-19T00:50:07.925Z,89.65
2022-12-19T00:52:09.946Z,89.86
2022-12-19T00:54:11.473Z,90.21
2022-12-19T00:56:12.596Z,90.11
2022-12-19T00:58:14.164Z,90.08
2022-12-19T01:00:16.007Z,90.37
2022-12-19T01:02:17.360Z,90.32
2022-12-19T01:04:28.036Z,90.33
2022-12-19T01:06:19.811Z,90.29
2022-12-19T01:08:21.155Z,90.07
2022-12-19T01:12:24.525Z,90.13
2022-12-19T01:14:25.468Z,90.33
2022-12-19T01:16:27.287Z,90.68
2022-12-19T01:18:28.924Z,90.97
2022-12-19T01:20:30.509Z,91.1
2022-12-19T01:22:32.178Z,91.19
2022-12-19T01:24:33.782Z,91.07
2022-12-19T01:26:34.996Z,91.05
2022-12-19T01:28:36.917Z,90.93
2022-12-19T01:30:38.189Z,90.86
2022-12-19T01:32:39.719Z,90.8
2022-12-19T01:34:41.725Z,90.69
2022-12-19T01:36:43.566Z,90.58
2022-12-19T01:38:44.712Z,90.55
2022-12-19T01:40:46.124Z,90.08
2022-12-19T01:42:48.232Z,89.9
2022-12-19T01:44:49.457Z,89.68
2022-12-19T01:46:51.159Z,89.47
2022-12-19T01:48:52.986Z,89.5
2022-12-19T01:51:00.771Z,89.57
2022-12-19T01:54:57.697Z,89.65
2022-12-19T01:56:59.713Z,89.65
2022-12-19T01:59:06.191Z,89.55
2022-12-19T02:01:02.081Z,89.76
2022-12-19T02:03:04.190Z,89.82
2022-12-19T02:05:06.188Z,89.81
2022-12-19T02:07:15.006Z,89.78
2022-12-19T02:09:09.132Z,89.84
2022-12-19T02:11:10.363Z,90.01
2022-12-19T02:13:11.978Z,90.38
2022-12-19T02:15:13.181Z,90.88
2022-12-19T02:17:14.941Z,90.94
2022-12-19T02:19:16.349Z,91.01
2022-12-19T02:21:17.511Z,90.5
2022-12-19T02:23:18.758Z,90.82
2022-12-19T02:27:21.680Z,90.58
2022-12-19T02:28:05.689Z,90.69
2022-12-19T02:30:07.454Z,90.59
2022-12-19T02:32:08.755Z,90.55
2022-12-19T02:34:10.708Z,90.33
2022-12-19T02:36:12.136Z,89.21
2022-12-19T02:38:13.638Z,88.98
2022-12-19T02:40:15.303Z,89.35
2022-12-19T02:42:17.372Z,90.11
2022-12-19T02:44:18.618Z,90.11
2022-12-19T02:46:20.678Z,89.98
2022-12-19T02:48:22.241Z,89.76
2022-12-19T02:50:23.915Z,89.81
2022-12-19T02:52:25.876Z,89.65
2022-12-19T02:54:27.943Z,88.74
2022-12-19T02:56:29.567Z,89.23
2022-12-19T02:58:31.411Z,89.29
2022-12-19T03:00:32.625Z,89.32
2022-12-19T03:04:36.192Z,88.96
2022-12-19T03:06:37.837Z,88.84
2022-12-19T03:08:39.830Z,87.71
2022-12-19T03:10:41.579Z,88
2022-12-19T03:14:45.188Z,87.68
2022-12-19T03:16:46.654Z,87.67
2022-12-19T03:18:47.768Z,87.73
2022-12-19T03:20:49.112Z,88.16
2022-12-19T03:22:50.818Z,87.75
2022-12-19T03:24:52.224Z,87.46
2022-12-19T03:26:54.059Z,87.71
2022-12-19T03:28:55.817Z,87.78
2022-12-19T03:30:57.813Z,87.9
2022-12-19T03:32:59.295Z,88.56
2022-12-19T03:35:00.799Z,88.83
2022-12-19T03:37:02.516Z,89.17
2022-12-19T03:39:03.935Z,89.42
2022-12-19T03:41:06.032Z,89.17
2022-12-19T03:43:07.754Z,89.22
2022-12-19T03:47:10.440Z,89.51
2022-12-19T03:49:12.081Z,89.58
2022-12-19T03:51:13.540Z,90.31
2022-12-19T03:53:14.703Z,90.67
2022-12-19T03:57:17.667Z,90.75
2022-12-19T03:59:19.453Z,91.17
2022-12-19T04:01:21.509Z,90.93
2022-12-19T04:03:23.207Z,91.42
2022-12-19T04:05:24.827Z,91.63
2022-12-19T04:07:26.863Z,91.66
2022-12-19T04:09:28.019Z,91.91
2022-12-19T04:11:29.200Z,91.07
2022-12-19T04:13:31.125Z,92.23
2022-12-19T04:15:32.937Z,92.03
2022-12-19T04:17:34.548Z,92.14
2022-12-19T04:19:39.840Z,92.03
2022-12-19T04:21:37.573Z,91.66
2022-12-19T04:23:39.010Z,91.09
2022-12-19T04:25:41.051Z,91.19
2022-12-19T04:29:44.411Z,91.46
2022-12-19T04:31:45.504Z,91.1
2022-12-19T04:33:47.086Z,91.21
2022-12-19T04:35:48.908Z,91.53
2022-12-19T04:39:51.808Z,91.61
2022-12-19T04:41:53.508Z,91.64
2022-12-19T04:43:55.203Z,91.53
2022-12-19T04:45:57.644Z,91.73
2022-12-19T04:47:57.927Z,91.56
2022-12-19T04:49:59.066Z,91.64
2022-12-19T04:52:00.756Z,91.63
2022-12-19T04:54:02.064Z,91.81
2022-12-19T04:56:03.594Z,92.34
2022-12-19T04:58:05.320Z,92.42
2022-12-19T05:00:06.576Z,92.44
2022-12-19T05:02:08.564Z,92.5
2022-12-19T05:04:10.288Z,92.62
2022-12-19T05:06:11.528Z,92.8
2022-12-19T05:08:13.326Z,92.78
2022-12-19T05:10:14.498Z,93.12
2022-12-19T05:12:15.957Z,93.25
2022-12-19T05:14:17.163Z,93.24
2022-12-19T05:16:19.193Z,93.17
2022-12-19T05:18:20.349Z,93.05
2022-12-19T05:20:22.053Z,93.13
2022-12-19T05:22:24.022Z,93.12
2022-12-19T05:24:25.696Z,93.17
2022-12-19T05:28:28.226Z,93.1
2022-12-19T05:30:30.211Z,93.14
2022-12-19T05:32:31.744Z,93.2
2022-12-19T05:34:33.705Z,93.28
2022-12-19T05:38:36.128Z,93.13
2022-12-19T05:40:37.639Z,93.05
2022-12-19T05:42:39.461Z,93.12
2022-12-19T05:44:41.489Z,93.14
2022-12-19T05:46:42.635Z,93.52
2022-12-19T05:48:44.504Z,93.65
2022-12-19T05:50:46.280Z,93.63
2022-12-19T05:52:48.437Z,93.5
2022-12-19T05:54:50.221Z,93.61
2022-12-19T05:56:51.711Z,93.51
2022-12-19T05:58:53.180Z,93.52
2022-12-19T06:00:58.057Z,93.38
2022-12-19T06:02:56.327Z,93.35
2022-12-19T06:04:57.459Z,93.31
2022-12-19T06:06:58.756Z,93.23
2022-12-19T06:11:01.626Z,92.97
2022-12-19T06:13:02.976Z,93
2022-12-19T06:15:04.767Z,92.98
2022-12-19T06:17:06.728Z,93.06
2022-12-19T06:21:09.909Z,93.32
2022-12-19T06:23:10.990Z,93.41
2022-12-19T06:25:12.875Z,93.45
2022-12-19T06:27:14.242Z,93.44
2022-12-19T06:29:16.046Z,93.64
2022-12-19T06:31:17.794Z,93.82
2022-12-19T06:33:19.627Z,93.75
2022-12-19T06:35:21.307Z,93.83
2022-12-19T06:37:22.878Z,93.87
2022-12-19T06:39:24.393Z,93.73
2022-12-19T06:41:26.362Z,93.61
2022-12-19T06:43:27.672Z,93.65
2022-12-19T06:45:29.613Z,93.59
2022-12-19T06:47:30.773Z,93.4
2022-12-19T06:49:32.508Z,93.4
2022-12-19T06:53:35.808Z,93.55
2022-12-19T06:55:37.774Z,93.6
2022-12-19T06:57:39.253Z,93.67
2022-12-19T06:59:40.813Z,93.65
2022-12-19T07:03:44.219Z,93.76
2022-12-19T07:05:46.029Z,93.79
2022-12-19T07:07:47.245Z,93.79
2022-12-19T07:09:49.136Z,94.04
2022-12-19T07:11:50.756Z,94.11
2022-12-19T07:13:52.381Z,94.12
2022-12-19T07:15:53.835Z,93.92
2022-12-19T07:17:55.076Z,93.77
2022-12-19T07:19:57.028Z,93.55
2022-12-19T07:21:58.861Z,93.39
2022-12-19T07:24:00.093Z,93.51
2022-12-19T07:26:01.670Z,93.6
2022-12-19T07:28:02.741Z,93.54
2022-12-19T07:30:04.617Z,93.59
2022-12-19T07:32:06.243Z,93.41
2022-12-19T07:36:09.930Z,93.14
2022-12-19T07:38:11.137Z,93.2
2022-12-19T07:40:13.010Z,93.17
2022-12-19T07:42:14.244Z,93.29
2022-12-19T07:46:17.060Z,93.22
2022-12-19T07:48:18.522Z,93.23
2022-12-19T07:50:19.713Z,93.17
2022-12-19T07:52:21.352Z,93.13
2022-12-19T07:54:22.472Z,93.09
2022-12-19T07:56:24.504Z,93.4
2022-12-19T07:58:25.964Z,93.95
2022-12-19T08:00:28.023Z,94.02
2022-12-19T08:02:29.779Z,93.64
2022-12-19T08:04:31.014Z,93.57
2022-12-19T08:06:34.215Z,93.62
2022-12-19T08:08:33.532Z,93.46
2022-12-19T08:10:34.943Z,93.32
2022-12-19T08:12:36.266Z,93.3
2022-12-19T08:14:37.842Z,93.27
2022-12-19T08:16:55.879Z,93.26
2022-12-19T08:18:40.564Z,93.29
2022-12-19T08:20:42.218Z,93.04
2022-12-19T08:22:43.814Z,92.76
2022-12-19T08:24:45.118Z,92.53
2022-12-19T08:28:47.908Z,92.32
2022-12-19T08:30:49.107Z,92.42
2022-12-19T08:32:50.719Z,92.53
2022-12-19T08:34:52.011Z,92.3
2022-12-19T08:36:53.487Z,92.29
2022-12-19T08:38:54.845Z,92.42
2022-12-19T08:40:56.801Z,92.43
2022-12-19T08:42:58.347Z,92.4
2022-12-19T08:44:59.799Z,92.33
2022-12-19T08:47:01.730Z,92.64
2022-12-19T08:49:02.837Z,93.08
2022-12-19T08:51:04.539Z,92.89
2022-12-19T08:53:06.462Z,92.71
2022-12-19T08:55:07.575Z,92.74
2022-12-19T08:57:09.296Z,92.15
2022-12-19T09:01:12.042Z,91.86
2022-12-19T09:03:14.085Z,92.04
2022-12-19T09:05:26.008Z,92.24
2022-12-19T09:07:16.409Z,92.05
2022-12-19T09:11:18.658Z,91.69
2022-12-19T09:13:20.387Z,91.64
2022-12-19T09:16:06.199Z,92.26
2022-12-19T09:18:08.016Z,91.64
2022-12-19T09:20:09.274Z,91.42
2022-12-19T09:22:10.498Z,91.46
2022-12-19T09:24:11.506Z,91.05
2022-12-19T09:26:13.304Z,90.73
2022-12-19T09:28:27.164Z,90.7
2022-12-19T09:30:16.682Z,90.74
2022-12-19T09:32:18.588Z,91.02
2022-12-19T09:34:21.931Z,90.79
2022-12-19T09:36:21.906Z,91.21
2022-12-19T09:38:23.493Z,91.4
2022-12-19T09:40:25.094Z,91.55
2022-12-19T09:42:26.428Z,91.62
2022-12-19T09:44:28.002Z,91.28
2022-12-19T09:46:29.415Z,91.1
2022-12-19T09:48:30.930Z,90.93
2022-12-19T09:50:32.823Z,91.04
2022-12-19T09:54:36.146Z,90.77
2022-12-19T09:56:46.118Z,90.19
2022-12-19T09:58:39.305Z,90.55
2022-12-19T10:00:40.628Z,90.65
2022-12-19T10:04:43.725Z,89.9
2022-12-19T10:07:16.737Z,90
2022-12-19T10:08:56.984Z,89.38
2022-12-19T10:12:30.153Z,89.06
2022-12-19T10:12:51.514Z,88.62
2022-12-19T10:14:51.606Z,89.06
2022-12-19T10:17:22.341Z,88.63
2022-12-19T10:18:56.628Z,87.72
2022-12-19T10:20:55.539Z,87.41
2022-12-19T10:22:57.151Z,87.25
2022-12-19T10:25:08.187Z,88.25
2022-12-19T10:27:00.323Z,88.29
2022-12-19T10:29:01.536Z,88.58
2022-12-19T10:31:09.023Z,88.79
2022-12-19T10:33:04.126Z,87.97
2022-12-19T10:37:25.499Z,87.22
2022-12-19T10:39:08.751Z,87.15
2022-12-19T10:41:10.384Z,87.8
2022-12-19T10:43:13.876Z,88.34
2022-12-19T10:47:14.819Z,88.58
2022-12-19T10:49:15.970Z,89.12
2022-12-19T10:51:17.109Z,89.06
2022-12-19T10:53:18.246Z,89.12
2022-12-19T10:55:19.666Z,88.29
2022-12-19T10:57:20.848Z,88.65
2022-12-19T10:59:22.060Z,88.39
2022-12-19T11:01:23.964Z,87.73
2022-12-19T11:03:25.674Z,87.58
2022-12-19T11:05:27.188Z,87.32
2022-12-19T11:07:28.247Z,87.46
2022-12-19T11:09:29.613Z,87.49
2022-12-19T11:12:02.687Z,87.24
2022-12-19T11:16:34.885Z,87.54
2022-12-19T11:18:32.551Z,86.63
2022-12-19T11:20:09.296Z,86.55
2022-12-19T11:22:24.748Z,86.08
2022-12-19T11:26:06.063Z,86.79
2022-12-19T11:29:28.169Z,87.2
2022-12-19T11:29:29.351Z,87.35
2022-12-19T11:32:29.632Z,88.37
2022-12-19T11:33:46.455Z,88.76
2022-12-19T11:35:48.254Z,89.58
2022-12-19T11:37:52.788Z,90.14
2022-12-19T11:39:52.127Z,90.28
2022-12-19T11:41:53.637Z,90.55
2022-12-19T11:43:55.031Z,90.58
2022-12-19T11:45:56.701Z,90.35
2022-12-19T11:47:58.439Z,90.31
2022-12-19T11:50:00.029Z,89.91
2022-12-19T11:52:01.148Z,89.97
2022-12-19T11:54:03.869Z,89.78
2022-12-19T11:56:04.351Z,89.97
2022-12-19T11:58:06.348Z,89.77
2022-12-19T12:02:09.265Z,89.31
2022-12-19T12:04:11.296Z,88.64
2022-12-19T12:06:12.416Z,88.69
2022-12-19T12:08:52.621Z,88.4
2022-12-19T12:11:41.464Z,87.81
2022-12-19T12:15:26.933Z,87.96
2022-12-19T12:18:47.541Z,87.57
2022-12-19T12:21:32.518Z,87.39
2022-12-19T12:23:31.109Z,87.22
2022-12-19T12:27:06.553Z,86.99
2022-12-19T12:29:46.097Z,87.05
2022-12-19T12:31:34.250Z,86.36
2022-12-19T12:31:37.246Z,86.8
2022-12-19T12:31:38.027Z,86.29
2022-12-19T12:32:07.730Z,86.64
2022-12-19T12:35:27.715Z,88.3
2022-12-19T12:35:28.110Z,87.22
2022-12-19T12:37:45.964Z,88.76
2022-12-19T12:38:38.327Z,88
2022-12-19T12:40:39.745Z,87.97
2022-12-19T12:44:45.774Z,88.44
2022-12-19T12:46:44.934Z,87.34
2022-12-19T12:48:46.127Z,87.75
2022-12-19T12:50:53.225Z,88.34
2022-12-19T12:54:50.990Z,88.54
2022-12-19T12:56:52.536Z,88.3
2022-12-19T12:58:54.536Z,87.96
2022-12-19T13:00:55.971Z,88.05
2022-12-19T13:02:57.802Z,88.26
2022-12-19T13:04:59.306Z,88.51
2022-12-19T13:07:00.791Z,88.54
2022-12-19T13:09:02.846Z,88.56
2022-12-19T13:11:04.601Z,88.86
2022-12-19T13:13:10.878Z,88.89
2022-12-19T13:15:07.516Z,88.92
2022-12-19T13:17:09.302Z,89.05
2022-12-19T13:19:16.812Z,88.79
2022-12-19T13:21:12.417Z,88.7
2022-12-19T13:23:14.042Z,89.04
2022-12-19T13:27:17.378Z,88.86
2022-12-19T13:29:19.314Z,88.65
2022-12-19T13:31:22.721Z,88.91
2022-12-19T13:33:22.921Z,88.91
2022-12-19T13:39:53.344Z,89.12
2022-12-19T13:39:53.517Z,88.91
2022-12-19T13:41:29.701Z,89.14
2022-12-19T13:43:30.917Z,88.89
2022-12-19T13:45:33.015Z,88.84
2022-12-19T13:47:34.877Z,88.99
2022-12-19T13:49:36.551Z,89.06
2022-12-19T13:51:37.812Z,89.1
2022-12-19T13:53:39.178Z,89.08
2022-12-19T13:55:40.383Z,89.14
2022-12-19T13:57:42.349Z,89.17
2022-12-19T13:59:54.380Z,89.15
2022-12-19T14:01:46.111Z,89.3
2022-12-19T14:03:47.607Z,89.5
2022-12-19T14:06:15.471Z,89.53
2022-12-19T14:11:24.866Z,89.6
2022-12-19T14:12:08.557Z,89.62
2022-12-19T14:13:58.786Z,89.62
2022-12-19T14:15:57.827Z,89.78
2022-12-19T14:20:12.346Z,89.92
2022-12-19T14:22:12.311Z,89.95
2022-12-19T14:24:04.459Z,90.14
2022-12-19T14:28:15.866Z,90.27
2022-12-19T14:28:16.551Z,90.31
2022-12-19T14:30:29.593Z,90.4
2022-12-19T14:32:23.955Z,90.51
2022-12-19T14:34:47.357Z,90.66
2022-12-19T14:36:20.020Z,90.8
2022-12-19T14:39:26.213Z,91
2022-12-19T14:40:18.989Z,91.22
2022-12-19T14:42:20.429Z,91.3
2022-12-19T14:50:42.935Z,91.49
2022-12-19T14:50:59.749Z,91.56
2022-12-19T14:50:59.992Z,91.46
2022-12-19T14:53:52.786Z,91.63
2022-12-19T14:54:20.413Z,91.73
2022-12-19T14:58:55.073Z,91.87
2022-12-19T15:02:35.967Z,91.91
2022-12-19T15:04:49.973Z,91.94
2022-12-19T15:07:06.125Z,91.89
2022-12-19T15:09:01.157Z,91.91
2022-12-19T15:11:01.434Z,91.98
2022-12-19T15:13:46.805Z,92.03
2022-12-19T15:14:55.626Z,92.06
2022-12-19T15:16:48.006Z,92.13
2022-12-19T15:18:49.620Z,92.2
2022-12-19T15:20:51.364Z,92.53
2022-12-19T15:22:52.540Z,92.41
2022-12-19T15:24:53.792Z,92.32
2022-12-19T15:26:55.682Z,92.21
2022-12-19T15:28:57.144Z,92.4
2022-12-19T15:30:59.181Z,92.5
2022-12-19T15:33:00.939Z,92.68
2022-12-19T15:35:02.044Z,92.8
2022-12-19T15:37:03.220Z,92.97
2022-12-19T15:39:04.327Z,93.14
2022-12-19T15:41:10.602Z,93.49
2022-12-19T15:45:08.738Z,93.4
2022-12-19T15:47:10.362Z,93.34
2022-12-19T15:49:12.305Z,93.19
2022-12-19T15:51:14.296Z,93.22
2022-12-19T15:53:20.669Z,93.28
2022-12-19T15:55:17.607Z,93.33
2022-12-19T15:57:19.294Z,93.46
2022-12-19T15:59:20.468Z,93.43
2022-12-19T16:00:04.446Z,93.37
2022-12-19T16:02:05.827Z,93.65
2022-12-19T16:04:07.880Z,93.89
2022-12-19T16:06:09.484Z,93.97
2022-12-19T16:08:11.466Z,94.2
2022-12-19T16:12:14.413Z,93.92
2022-12-19T16:14:16.007Z,93.73
2022-12-19T16:16:17.379Z,93.6
2022-12-19T16:18:18.774Z,93.55
2022-12-19T16:22:22.484Z,93.78
2022-12-19T16:24:23.871Z,93.9
2022-12-19T16:26:25.223Z,94.18
2022-12-19T16:28:26.978Z,94.03
2022-12-19T16:30:28.866Z,94.08
2022-12-19T16:32:30.542Z,94.01
2022-12-19T16:34:32.327Z,94.06
2022-12-19T16:36:33.990Z,94.19
2022-12-19T16:38:35.309Z,94.33
2022-12-19T16:40:36.781Z,94.81
2022-12-19T16:42:38.212Z,94.52
2022-12-19T16:44:39.718Z,94.5
2022-12-19T16:46:44.226Z,94.66
2022-12-19T16:48:42.984Z,94.66
2022-12-19T16:50:44.120Z,94.57
2022-12-19T16:54:47.532Z,94.7
2022-12-19T16:56:48.946Z,94.88
2022-12-19T16:58:50.709Z,94.68
2022-12-19T17:00:52.167Z,94.94
2022-12-19T17:04:55.923Z,94.89
2022-12-19T17:06:57.406Z,94.85
2022-12-19T17:08:58.537Z,95.06
2022-12-19T17:11:00.562Z,95.29
2022-12-19T17:13:02.370Z,95.1
2022-12-19T17:15:04.101Z,95.1
2022-12-19T17:17:05.621Z,95.24
2022-12-19T17:19:07.350Z,95.17
2022-12-19T17:21:09.040Z,95.34
2022-12-19T17:23:10.266Z,95.3
2022-12-19T17:25:11.377Z,95.54
2022-12-19T17:27:12.674Z,95.42
2022-12-19T17:29:14.463Z,95.47
2022-12-19T17:31:16.212Z,95.45
2022-12-19T17:33:17.763Z,95.51
2022-12-19T17:37:20.715Z,95.66
2022-12-19T17:39:22.633Z,95.64
2022-12-19T17:41:24.304Z,95.58
2022-12-19T17:43:25.512Z,95.58
2022-12-19T17:45:27.028Z,95.63
2022-12-19T17:47:28.261Z,95.66
2022-12-19T17:49:30.085Z,95.69
2022-12-19T17:51:31.623Z,95.72
2022-12-19T17:53:33.458Z,95.7
2022-12-19T17:55:35.014Z,95.71
2022-12-19T17:57:37.035Z,95.72
2022-12-19T17:59:38.139Z,95.76
2022-12-19T18:01:39.908Z,95.78
2022-12-19T18:03:41.480Z,95.8
2022-12-19T18:05:42.459Z,95.73
2022-12-19T18:09:46.075Z,95.63
2022-12-19T18:11:47.313Z,95.86
2022-12-19T18:13:49.109Z,95.82
2022-12-19T18:15:50.296Z,95.87
2022-12-19T18:19:53.946Z,95.73
2022-12-19T18:21:55.837Z,95.87
2022-12-19T18:23:57.568Z,95.64
2022-12-19T18:26:02.084Z,95.6
2022-12-19T18:28:01.451Z,95.86
2022-12-19T18:30:03.036Z,95.95
2022-12-19T18:32:04.106Z,95.71
2022-12-19T18:34:07.903Z,95.7
2022-12-19T18:36:06.896Z,95.97
2022-12-19T18:38:08.003Z,95.88
2022-12-19T18:40:13.023Z,95.66
2022-12-19T18:42:11.587Z,95.8
2022-12-19T18:44:12.921Z,96.23
2022-12-19T18:46:15.007Z,96.05
2022-12-19T18:48:16.476Z,96.02
2022-12-19T18:52:19.587Z,96.2
2022-12-19T18:54:21.581Z,96.24
2022-12-19T18:56:22.701Z,96.25
2022-12-19T18:58:23.948Z,96.41
2022-12-19T19:00:25.246Z,96.45
2022-12-19T19:02:26.723Z,96.31
2022-12-19T19:04:28.500Z,96.21
2022-12-19T19:06:34.360Z,96.24
2022-12-19T19:08:31.958Z,96.31
2022-12-19T19:10:33.027Z,96.31
2022-12-19T19:12:34.221Z,96.35
2022-12-19T19:14:35.464Z,96.46
2022-12-19T19:16:37.576Z,96.46
2022-12-19T19:18:39.432Z,96.46
2022-12-19T19:20:41.277Z,96.48
2022-12-19T19:22:42.688Z,96.5
2022-12-19T19:24:43.934Z,96.51
2022-12-19T19:26:45.537Z,96.62
2022-12-19T19:28:52.105Z,96.67
2022-12-19T19:30:48.607Z,96.75
2022-12-19T19:32:50.355Z,96.82
2022-12-19T19:34:52.177Z,96.8
2022-12-19T19:36:54.122Z,96.81
2022-12-19T19:38:55.689Z,96.81
2022-12-19T19:40:57.141Z,96.95
2022-12-19T19:42:58.426Z,97.01
2022-12-19T19:45:00.324Z,97.1
2022-12-19T19:47:01.478Z,97.1
2022-12-19T19:51:04.483Z,97.07
2022-12-19T19:53:06.046Z,97.07
2022-12-19T19:55:07.545Z,97.11
2022-12-19T19:57:09.357Z,97.1
2022-12-19T20:01:12.667Z,97.22
2022-12-19T20:03:18.662Z,97.23
2022-12-19T20:05:15.814Z,97.37
2022-12-19T20:07:17.092Z,97.36
2022-12-19T20:09:18.558Z,97.37
2022-12-19T20:11:20.629Z,97.46
2022-12-19T20:13:21.720Z,97.56
2022-12-19T20:15:23.166Z,97.49
2022-12-19T20:17:24.401Z,97.49
2022-12-19T20:19:26.307Z,97.53
2022-12-19T20:21:27.886Z,97.52
2022-12-19T20:23:29.830Z,97.49
2022-12-19T20:27:32.858Z,97.41
2022-12-19T20:29:34.082Z,97.33
2022-12-19T20:33:37.302Z,97.26
2022-12-19T20:35:39.017Z,97.27
2022-12-19T20:37:41.053Z,97.27
2022-12-19T20:39:42.520Z,97.33
2022-12-19T20:43:46.144Z,97.4
2022-12-19T20:45:47.258Z,97.46
2022-12-19T20:47:49.149Z,97.5
2022-12-19T20:49:50.319Z,97.47
2022-12-19T20:51:52.239Z,97.49
2022-12-19T20:53:53.320Z,97.44
2022-12-19T20:55:57.986Z,97.46
2022-12-19T20:57:56.795Z,97.43
2022-12-19T20:59:57.897Z,97.38
2022-12-19T21:01:59.566Z,97.34
2022-12-19T21:04:00.957Z,97.3
2022-12-19T21:06:02.760Z,97.27
2022-12-19T21:08:04.126Z,97.24
2022-12-19T21:10:05.645Z,97.22
2022-12-19T21:12:07.519Z,97.21
2022-12-19T21:14:09.284Z,97.23
2022-12-19T21:16:11.203Z,97.22
2022-12-19T21:18:12.281Z,97.18
2022-12-19T21:20:13.989Z,97.19
2022-12-19T21:22:15.606Z,97.16
2022-12-19T21:26:18.124Z,97.13
2022-12-19T21:28:19.925Z,97.15
2022-12-19T21:30:21.448Z,97.13
2022-12-19T21:32:22.755Z,97.11
2022-12-19T21:34:24.787Z,97.12
2022-12-19T21:36:25.909Z,97.13
2022-12-19T21:38:27.847Z,97.14
2022-12-19T21:40:29.796Z,97.12
2022-12-19T21:42:31.530Z,97.09
2022-12-19T21:44:33.312Z,97.11
2022-12-19T21:46:34.640Z,97.09
2022-12-19T21:48:36.363Z,97.09
2022-12-19T21:50:37.821Z,97.09
2022-12-19T21:52:39.659Z,97.09
2022-12-19T21:54:41.558Z,97.12
2022-12-19T21:56:42.850Z,97.08
2022-12-19T21:58:43.987Z,97.13
2022-12-19T22:00:45.353Z,97.12
2022-12-19T22:03:11.859Z,97.14
2022-12-19T22:04:48.481Z,97.16
2022-12-19T22:08:51.677Z,97.12
2022-12-19T22:10:53.065Z,97.12
2022-12-19T22:12:54.375Z,96.99
2022-12-19T22:14:55.751Z,96.96
2022-12-19T22:16:57.408Z,96.97
2022-12-19T22:18:59.397Z,96.85
2022-12-19T22:21:01.144Z,96.97
2022-12-19T22:23:03.381Z,97.07
2022-12-19T22:25:03.597Z,97.1
2022-12-19T22:27:05.309Z,97.09
2022-12-19T22:29:06.660Z,97.14
2022-12-19T22:31:08.185Z,97.18
2022-12-19T22:33:09.702Z,97.23
2022-12-19T22:35:11.086Z,97.24
2022-12-19T22:37:12.696Z,97.25
2022-12-19T22:39:13.815Z,97.25
2022-12-19T22:41:15.625Z,97.27
2022-12-19T22:43:17.259Z,97.25
2022-12-19T22:45:19.193Z,97.27
2022-12-19T22:46:03.240Z,97.23
2022-12-19T22:48:04.890Z,97.26
2022-12-19T22:50:06.949Z,97.28
2022-12-19T22:52:08.453Z,97.01
2022-12-19T22:54:10.473Z,97.01
2022-12-19T22:56:11.804Z,97.04
2022-12-19T22:58:13.334Z,97.04
2022-12-19T23:00:14.417Z,97.03
2022-12-19T23:02:16.426Z,97.1
2022-12-19T23:04:18.325Z,97.1
2022-12-19T23:06:19.590Z,97.13
2022-12-19T23:08:20.715Z,97.17
2022-12-19T23:10:22.366Z,97.16
2022-12-19T23:12:24.398Z,97.18
2022-12-19T23:14:25.982Z,97.19
2022-12-19T23:18:28.757Z,97.18
2022-12-19T23:20:30.742Z,97.11
2022-12-19T23:22:31.841Z,97.09
2022-12-19T23:24:33.775Z,97.01
2022-12-19T23:28:36.783Z,96.91
2022-12-19T23:30:38.787Z,96.82
2022-12-19T23:32:44.189Z,96.8
2022-12-19T23:34:42.274Z,96.78
2022-12-19T23:37:11.412Z,96.76
2022-12-19T23:38:45.697Z,96.67
2022-12-19T23:40:47.211Z,96.66
2022-12-19T23:42:48.687Z,96.72
2022-12-19T23:44:49.760Z,96.75
2022-12-19T23:46:51.105Z,96.78
2022-12-19T23:48:52.508Z,96.73
2022-12-19T23:50:53.590Z,96.57
2022-12-19T23:52:55.151Z,96.63
2022-12-19T23:54:57.169Z,96.68
2022-12-19T23:56:58.938Z,96.72
